createdAt,value
2019-04-28T00:01:54.586Z,100988.50
2019-04-28T00:07:01.862Z,100986.30
2019-04-28T00:12:11.284Z,100972.20
2019-04-28T00:17:18.597Z,100992.20
2019-04-28T00:22:35.482Z,101004.28
2019-04-28T00:27:42.581Z,101004.28
2019-04-28T00:32:49.585Z,100992.24
2019-04-28T00:37:56.582Z,100992.40
2019-04-28T00:43:03.660Z,100990.03
2019-04-28T00:48:11.005Z,100995.71
2019-04-28T00:53:18.577Z,100995.71
2019-04-28T00:58:25.600Z,101003.17
2019-04-28T01:03:32.602Z,100999.66
2019-04-28T01:08:39.699Z,101015.79
2019-04-28T01:13:46.597Z,101018.28
2019-04-28T01:19:20.108Z,101020.20
2019-04-28T01:24:27.262Z,101020.20
2019-04-28T01:29:34.519Z,101023.71
2019-04-28T01:34:41.631Z,101027.52
2019-04-28T01:39:49.574Z,101020.66
2019-04-28T01:44:56.564Z,101031.23
2019-04-28T01:50:03.565Z,101036.14
2019-04-28T01:55:10.589Z,101031.88
2019-04-28T02:00:23.058Z,101024.59
2019-04-28T02:05:27.264Z,101024.59
2019-04-28T02:10:34.459Z,101035.12
2019-04-28T02:15:41.605Z,101045.98
2019-04-28T02:20:53.257Z,101052.31
2019-04-28T02:26:00.620Z,101052.31
2019-04-28T02:31:07.596Z,101060.94
2019-04-28T02:36:14.614Z,101071.26
2019-04-28T02:41:23.277Z,101072.67
2019-04-28T02:46:30.885Z,101072.67
2019-04-28T02:51:46.539Z,101081.41
2019-04-28T02:56:53.600Z,101104.19
2019-04-28T03:02:00.804Z,101108.94
2019-04-28T03:07:08.237Z,101108.94
2019-04-28T03:12:15.565Z,101120.89
2019-04-28T03:17:22.604Z,101126.78
2019-04-28T03:22:33.001Z,101123.50
2019-04-28T03:28:01.246Z,101123.50
2019-04-28T03:33:13.214Z,101119.86
2019-04-28T03:38:21.230Z,101132.98
2019-04-28T03:43:26.351Z,101132.98
2019-04-28T03:48:33.647Z,101138.00
2019-04-28T03:53:41.128Z,101145.25
2019-04-28T04:02:36.745Z,101144.25
2019-04-28T04:07:43.588Z,101149.80
2019-04-28T04:12:55.258Z,101159.29
2019-04-28T04:18:11.085Z,101159.29
2019-04-28T04:23:17.338Z,101169.02
2019-04-28T04:28:24.437Z,101182.06
2019-04-28T04:33:31.570Z,101182.06
2019-04-28T04:38:43.028Z,101181.52
2019-04-28T04:43:46.328Z,101181.52
2019-04-28T04:48:54.591Z,101202.61
2019-04-28T04:54:01.586Z,101210.43
2019-04-28T04:59:10.306Z,101202.69
2019-04-28T05:04:23.545Z,101202.69
2019-04-28T05:09:31.196Z,101214.05
2019-04-28T05:14:39.514Z,101214.05
2019-04-28T05:19:46.523Z,101235.66
2019-04-28T05:25:10.091Z,101235.66
2019-04-28T05:30:17.607Z,101247.33
2019-04-28T05:35:25.238Z,101266.73
2019-04-28T05:40:32.601Z,101266.73
2019-04-28T05:45:39.823Z,101292.54
2019-04-28T05:50:52.676Z,101292.54
2019-04-28T05:56:24.245Z,101281.15
2019-04-28T06:01:35.513Z,101281.15
2019-04-28T06:06:44.272Z,101282.22
2019-04-28T06:11:50.316Z,101282.22
2019-04-28T06:16:57.619Z,101291.13
2019-04-28T06:22:04.618Z,101291.13
2019-04-28T06:27:11.650Z,101291.14
2019-04-28T06:32:18.642Z,101293.64
2019-04-28T06:37:25.597Z,101293.64
2019-04-28T06:42:32.603Z,101299.73
2019-04-28T06:47:39.626Z,101303.08
2019-04-28T06:52:46.587Z,101303.89
2019-04-28T06:57:53.601Z,101310.28
2019-04-28T07:03:00.719Z,101319.15
2019-04-28T07:08:07.897Z,101319.15
2019-04-28T07:13:14.794Z,101323.31
2019-04-28T07:18:21.692Z,101320.78
2019-04-28T07:23:28.765Z,101320.15
2019-04-28T07:28:36.044Z,101320.15
2019-04-28T07:33:43.286Z,101320.70
2019-04-28T07:38:50.570Z,101319.85
2019-04-28T07:43:57.575Z,101342.07
2019-04-28T07:49:04.600Z,101342.07
2019-04-28T07:54:12.484Z,101359.33
2019-04-28T07:59:19.628Z,101359.33
2019-04-28T08:04:26.587Z,101371.03
2019-04-28T08:09:33.582Z,101372.42
2019-04-28T08:14:40.555Z,101379.62
2019-04-28T08:19:47.623Z,101379.62
2019-04-28T08:24:54.609Z,101397.90
2019-04-28T08:30:01.573Z,101411.28
2019-04-28T08:35:09.748Z,101411.28
2019-04-28T08:40:17.056Z,101419.89
2019-04-28T08:45:24.698Z,101431.02
2019-04-28T08:50:32.771Z,101433.24
2019-04-28T08:55:40.269Z,101446.56
2019-04-28T09:00:47.862Z,101464.33
2019-04-28T09:05:55.286Z,101464.33
2019-04-28T09:11:02.733Z,101463.80
2019-04-28T09:16:10.256Z,101460.17
2019-04-28T09:21:17.652Z,101467.64
2019-04-28T09:26:26.647Z,101480.73
2019-04-28T09:31:34.259Z,101472.20
2019-04-28T09:36:43.609Z,101472.20
2019-04-28T09:42:09.475Z,101483.84
2019-04-28T09:47:17.254Z,101483.84
2019-04-28T09:52:24.677Z,101483.91
2019-04-28T09:57:33.285Z,101493.33
2019-04-28T10:02:41.125Z,101493.33
2019-04-28T10:07:48.924Z,101500.41
2019-04-28T10:12:55.366Z,101500.41
2019-04-28T10:18:01.533Z,101497.83
2019-04-28T10:23:08.711Z,101496.02
2019-04-28T10:28:16.627Z,101496.74
2019-04-28T10:33:24.267Z,101506.52
2019-04-28T10:38:31.802Z,101500.91
2019-04-28T10:43:39.702Z,101499.34
2019-04-28T10:48:47.600Z,101499.98
2019-04-28T10:53:54.875Z,101503.72
2019-04-28T10:59:03.717Z,101503.72
2019-04-28T11:04:29.665Z,101500.23
2019-04-28T11:09:42.351Z,101505.77
2019-04-28T11:14:49.579Z,101502.06
2019-04-28T11:19:57.033Z,101500.06
2019-04-28T11:25:04.496Z,101502.18
2019-04-28T11:30:13.415Z,101502.18
2019-04-28T11:35:28.288Z,101496.06
2019-04-28T11:40:35.579Z,101508.80
2019-04-28T11:45:43.598Z,101511.38
2019-04-28T11:50:50.597Z,101516.13
2019-04-28T11:55:57.596Z,101508.33
2019-04-28T12:01:05.595Z,101508.08
2019-04-28T12:06:12.606Z,101522.45
2019-04-28T12:11:44.289Z,101516.64
2019-04-28T12:17:21.774Z,101516.64
2019-04-28T12:22:28.598Z,101529.88
2019-04-28T12:27:35.602Z,101522.15
2019-04-28T12:32:42.578Z,101531.50
2019-04-28T12:37:49.467Z,101532.41
2019-04-28T12:42:56.471Z,101532.41
2019-04-28T12:48:03.546Z,101531.39
2019-04-28T12:53:10.567Z,101530.74
2019-04-28T12:58:17.517Z,101543.54
2019-04-28T13:03:49.259Z,101543.54
2019-04-28T13:08:56.418Z,101534.31
2019-04-28T13:14:03.587Z,101535.09
2019-04-28T13:19:10.570Z,101545.36
2019-04-28T13:24:17.572Z,101542.52
2019-04-28T13:29:24.590Z,101542.52
2019-04-28T13:34:33.261Z,101548.30
2019-04-28T13:39:46.631Z,101548.30
2019-04-28T13:45:01.253Z,101540.86
2019-04-28T13:50:22.127Z,101540.86
2019-04-28T13:55:54.537Z,101537.25
2019-04-28T14:01:24.591Z,101528.94
2019-04-28T14:06:32.520Z,101531.16
2019-04-28T14:11:39.932Z,101531.16
2019-04-28T14:16:47.046Z,101532.41
2019-04-28T14:21:54.232Z,101527.95
2019-04-28T14:27:01.430Z,101534.60
2019-04-28T14:32:08.491Z,101532.16
2019-04-28T14:37:18.519Z,101532.12
2019-04-28T14:42:25.604Z,101532.40
2019-04-28T14:47:32.483Z,101529.30
2019-04-28T14:52:38.268Z,101529.30
2019-04-28T14:57:57.545Z,101547.51
2019-04-28T15:03:09.240Z,101541.00
2019-04-28T15:08:34.761Z,101536.89
2019-04-28T15:13:41.613Z,101541.91
2019-04-28T15:19:00.334Z,101541.76
2019-04-28T15:24:07.586Z,101541.76
2019-04-28T15:30:41.693Z,101554.61
2019-04-28T15:38:23.655Z,101550.62
2019-04-28T15:43:29.522Z,101544.83
2019-04-28T15:48:36.570Z,101544.83
2019-04-28T15:53:45.274Z,101559.67
2019-04-28T15:58:51.294Z,101559.67
2019-04-28T16:03:58.442Z,101561.88
2019-04-28T16:09:12.926Z,101558.95
2019-04-28T16:14:19.690Z,101550.38
2019-04-28T16:19:26.583Z,101550.76
2019-04-28T16:24:33.483Z,101542.23
2019-04-28T16:29:41.377Z,101542.23
2019-04-28T16:34:50.668Z,101544.63
2019-04-28T16:39:58.465Z,101557.08
2019-04-28T16:45:07.857Z,101551.81
2019-04-28T16:50:15.081Z,101557.86
2019-04-28T16:55:27.263Z,101569.37
2019-04-28T17:00:56.343Z,101566.56
2019-04-28T17:06:04.454Z,101560.33
2019-04-28T17:11:12.224Z,101567.25
2019-04-28T17:16:19.492Z,101577.63
2019-04-28T17:21:26.737Z,101583.09
2019-04-28T17:26:33.637Z,101583.09
2019-04-28T17:31:40.594Z,101583.72
2019-04-28T17:36:47.504Z,101595.51
2019-04-28T17:44:53.069Z,101591.05
2019-04-28T17:50:00.591Z,101611.70
2019-04-28T17:55:09.767Z,101610.55
2019-04-28T18:00:39.352Z,101610.55
2019-04-28T18:05:50.660Z,101625.29
2019-04-28T18:10:57.646Z,101632.06
2019-04-28T18:16:33.252Z,101632.06
2019-04-28T18:21:40.371Z,101632.38
2019-04-28T18:26:47.633Z,101643.66
2019-04-28T18:32:05.949Z,101643.77
2019-04-28T18:37:44.262Z,101649.67
2019-04-28T18:42:58.252Z,101652.81
2019-04-28T18:48:05.693Z,101655.11
2019-04-28T18:53:13.689Z,101662.67
2019-04-28T18:58:19.498Z,101665.85
2019-04-28T19:03:26.507Z,101665.85
2019-04-28T19:08:49.195Z,101672.82
2019-04-28T19:13:59.856Z,101678.42
2019-04-28T19:19:09.277Z,101676.50
2019-04-28T19:24:29.296Z,101681.25
2019-04-28T19:29:42.569Z,101682.92
2019-04-28T19:34:51.375Z,101686.03
2019-04-28T19:39:58.500Z,101688.53
2019-04-28T19:45:06.336Z,101681.30
2019-04-28T19:50:13.599Z,101683.28
2019-04-28T19:55:28.256Z,101686.06
2019-04-28T20:00:42.856Z,101686.06
2019-04-28T20:05:51.614Z,101687.72
2019-04-28T20:10:58.030Z,101701.66
2019-04-28T20:16:06.059Z,101701.66
2019-04-28T20:21:15.804Z,101699.42
2019-04-28T20:26:24.868Z,101693.04
2019-04-28T20:31:32.711Z,101702.22
2019-04-28T20:36:56.285Z,101704.19
2019-04-28T20:42:20.261Z,101692.78
2019-04-28T20:47:36.921Z,101702.80
2019-04-28T20:52:43.026Z,101705.86
2019-04-28T20:57:52.780Z,101707.53
2019-04-28T21:02:59.051Z,101717.27
2019-04-28T21:08:07.573Z,101712.01
2019-04-28T21:13:13.708Z,101712.56
2019-04-28T21:18:20.609Z,101721.76
2019-04-28T21:23:27.461Z,101720.36
2019-04-28T21:28:33.313Z,101720.36
2019-04-28T21:33:40.449Z,101728.98
2019-04-28T21:38:50.786Z,101717.27
2019-04-28T21:44:09.241Z,101710.61
2019-04-28T21:49:24.699Z,101712.28
2019-04-28T21:54:31.596Z,101712.83
2019-04-28T21:59:38.597Z,101712.83
2019-04-28T22:04:47.105Z,101711.71
2019-04-28T22:09:54.581Z,101711.71
2019-04-28T22:15:02.344Z,101713.41
2019-04-28T22:20:09.869Z,101713.41
2019-04-28T22:25:22.731Z,101708.94
2019-04-28T22:30:29.616Z,101701.16
2019-04-28T22:35:36.592Z,101703.68
2019-04-28T22:40:44.583Z,101691.44
2019-04-28T22:45:51.600Z,101692.02
2019-04-28T22:50:58.458Z,101693.96
2019-04-28T22:56:14.283Z,101693.96
2019-04-28T23:01:31.268Z,101696.20
2019-04-28T23:06:38.538Z,101691.72
2019-04-28T23:11:44.361Z,101688.40
2019-04-28T23:16:51.457Z,101681.17
2019-04-28T23:22:09.532Z,101681.17
2019-04-28T23:27:16.439Z,101683.11
2019-04-28T23:32:23.455Z,101683.68
2019-04-28T23:37:29.273Z,101686.19
2019-04-28T23:42:41.263Z,101681.44
2019-04-28T23:47:48.390Z,101683.67
2019-04-28T23:53:03.950Z,101683.67
2019-04-28T23:58:10.864Z,101679.77
